sensor_id;sensor_type;location;lat;lon;timestamp;P1;durP1;ratioP1;P2;durP2;ratioP2
29500;SDS011;16450;50.288;10.966;2022-12-15T00:00:30;52.87;;;22.03;;
29500;SDS011;16450;50.288;10.966;2022-12-15T00:03:49;42.80;;;20.03;;
29500;SDS011;16450;50.288;10.966;2022-12-15T00:07:08;41.30;;;19.33;;
29500;SDS011;16450;50.288;10.966;2022-12-15T00:10:28;40.07;;;18.57;;
29500;SDS011;16450;50.288;10.966;2022-12-15T00:13:50;41.73;;;19.20;;
29500;SDS011;16450;50.288;10.966;2022-12-15T00:17:11;42.50;;;20.13;;
29500;SDS011;16450;50.288;10.966;2022-12-15T00:20:31;36.33;;;17.17;;
29500;SDS011;16450;50.288;10.966;2022-12-15T00:23:50;35.43;;;17.07;;
29500;SDS011;16450;50.288;10.966;2022-12-15T00:27:09;37.73;;;18.43;;
29500;SDS011;16450;50.288;10.966;2022-12-15T00:30:28;38.70;;;17.73;;
29500;SDS011;16450;50.288;10.966;2022-12-15T00:33:48;32.90;;;16.00;;
29500;SDS011;16450;50.288;10.966;2022-12-15T00:37:07;35.23;;;16.23;;
29500;SDS011;16450;50.288;10.966;2022-12-15T00:40:26;43.50;;;18.43;;
29500;SDS011;16450;50.288;10.966;2022-12-15T00:43:27;40.50;;;18.87;;
29500;SDS011;16450;50.288;10.966;2022-12-15T00:46:29;43.13;;;18.33;;
29500;SDS011;16450;50.288;10.966;2022-12-15T00:49:49;42.70;;;18.70;;
29500;SDS011;16450;50.288;10.966;2022-12-15T00:53:08;44.27;;;18.57;;
29500;SDS011;16450;50.288;10.966;2022-12-15T00:56:27;43.50;;;19.40;;
29500;SDS011;16450;50.288;10.966;2022-12-15T00:59:46;48.07;;;19.73;;
29500;SDS011;16450;50.288;10.966;2022-12-15T01:03:16;57.00;;;20.80;;
29500;SDS011;16450;50.288;10.966;2022-12-15T01:06:37;53.10;;;20.53;;
29500;SDS011;16450;50.288;10.966;2022-12-15T01:09:57;56.03;;;20.40;;
29500;SDS011;16450;50.288;10.966;2022-12-15T01:13:16;47.83;;;19.87;;
29500;SDS011;16450;50.288;10.966;2022-12-15T01:16:35;41.00;;;19.43;;
29500;SDS011;16450;50.288;10.966;2022-12-15T01:19:54;49.23;;;20.27;;
29500;SDS011;16450;50.288;10.966;2022-12-15T01:23:14;48.80;;;20.43;;
29500;SDS011;16450;50.288;10.966;2022-12-15T01:26:14;47.57;;;19.83;;
29500;SDS011;16450;50.288;10.966;2022-12-15T01:29:15;40.27;;;18.17;;
29500;SDS011;16450;50.288;10.966;2022-12-15T01:32:16;45.50;;;18.77;;
29500;SDS011;16450;50.288;10.966;2022-12-15T01:35:16;37.07;;;17.03;;
29500;SDS011;16450;50.288;10.966;2022-12-15T01:38:17;35.40;;;16.57;;
29500;SDS011;16450;50.288;10.966;2022-12-15T01:41:18;35.07;;;16.27;;
29500;SDS011;16450;50.288;10.966;2022-12-15T01:44:21;42.83;;;18.63;;
29500;SDS011;16450;50.288;10.966;2022-12-15T01:47:22;44.53;;;18.07;;
29500;SDS011;16450;50.288;10.966;2022-12-15T01:50:25;37.10;;;16.50;;
29500;SDS011;16450;50.288;10.966;2022-12-15T01:53:27;31.73;;;14.60;;
29500;SDS011;16450;50.288;10.966;2022-12-15T01:56:33;29.77;;;14.27;;
29500;SDS011;16450;50.288;10.966;2022-12-15T01:59:39;33.70;;;14.77;;
29500;SDS011;16450;50.288;10.966;2022-12-15T02:02:45;34.70;;;16.47;;
29500;SDS011;16450;50.288;10.966;2022-12-15T02:05:45;37.40;;;17.20;;
29500;SDS011;16450;50.288;10.966;2022-12-15T02:08:47;37.10;;;17.30;;
29500;SDS011;16450;50.288;10.966;2022-12-15T02:15:42;30.87;;;15.30;;
29500;SDS011;16450;50.288;10.966;2022-12-15T02:22:01;31.57;;;15.40;;
29500;SDS011;16450;50.288;10.966;2022-12-15T02:25:21;36.40;;;16.67;;
29500;SDS011;16450;50.288;10.966;2022-12-15T02:32:18;28.53;;;14.80;;
29500;SDS011;16450;50.288;10.966;2022-12-15T02:39:03;28.97;;;14.43;;
29500;SDS011;16450;50.288;10.966;2022-12-15T02:42:05;33.20;;;15.30;;
29500;SDS011;16450;50.288;10.966;2022-12-15T02:45:10;31.17;;;14.77;;
29500;SDS011;16450;50.288;10.966;2022-12-15T02:54:56;36.83;;;16.20;;
29500;SDS011;16450;50.288;10.966;2022-12-15T03:01:52;34.63;;;16.57;;
29500;SDS011;16450;50.288;10.966;2022-12-15T03:05:01;38.33;;;17.80;;
29500;SDS011;16450;50.288;10.966;2022-12-15T03:08:02;34.90;;;17.57;;
29500;SDS011;16450;50.288;10.966;2022-12-15T03:11:03;40.03;;;18.40;;
29500;SDS011;16450;50.288;10.966;2022-12-15T03:14:03;35.63;;;17.60;;
29500;SDS011;16450;50.288;10.966;2022-12-15T03:17:04;40.87;;;18.50;;
29500;SDS011;16450;50.288;10.966;2022-12-15T03:20:06;44.13;;;19.43;;
29500;SDS011;16450;50.288;10.966;2022-12-15T03:23:08;40.33;;;18.40;;
29500;SDS011;16450;50.288;10.966;2022-12-15T03:26:08;43.30;;;19.47;;
29500;SDS011;16450;50.288;10.966;2022-12-15T03:29:09;47.50;;;20.07;;
29500;SDS011;16450;50.288;10.966;2022-12-15T03:32:09;53.40;;;21.83;;
29500;SDS011;16450;50.288;10.966;2022-12-15T03:35:10;48.80;;;22.17;;
29500;SDS011;16450;50.288;10.966;2022-12-15T03:38:11;47.27;;;21.43;;
29500;SDS011;16450;50.288;10.966;2022-12-15T03:41:12;49.37;;;22.30;;
29500;SDS011;16450;50.288;10.966;2022-12-15T03:44:13;49.43;;;23.37;;
29500;SDS011;16450;50.288;10.966;2022-12-15T03:47:13;48.23;;;21.10;;
29500;SDS011;16450;50.288;10.966;2022-12-15T03:50:15;50.70;;;22.53;;
29500;SDS011;16450;50.288;10.966;2022-12-15T03:53:18;51.43;;;22.43;;
29500;SDS011;16450;50.288;10.966;2022-12-15T03:56:19;57.97;;;23.00;;
29500;SDS011;16450;50.288;10.966;2022-12-15T03:59:19;52.27;;;22.47;;
29500;SDS011;16450;50.288;10.966;2022-12-15T04:02:20;48.37;;;22.63;;
29500;SDS011;16450;50.288;10.966;2022-12-15T04:05:22;47.40;;;19.57;;
29500;SDS011;16450;50.288;10.966;2022-12-15T04:08:30;44.53;;;20.33;;
29500;SDS011;16450;50.288;10.966;2022-12-15T04:11:31;46.97;;;20.87;;
29500;SDS011;16450;50.288;10.966;2022-12-15T04:14:31;42.23;;;20.10;;
29500;SDS011;16450;50.288;10.966;2022-12-15T04:17:32;50.43;;;22.17;;
29500;SDS011;16450;50.288;10.966;2022-12-15T04:20:33;43.33;;;20.30;;
29500;SDS011;16450;50.288;10.966;2022-12-15T04:23:34;51.00;;;22.17;;
29500;SDS011;16450;50.288;10.966;2022-12-15T04:26:34;54.00;;;23.40;;
29500;SDS011;16450;50.288;10.966;2022-12-15T04:29:53;52.50;;;22.23;;
29500;SDS011;16450;50.288;10.966;2022-12-15T04:33:13;49.87;;;20.97;;
29500;SDS011;16450;50.288;10.966;2022-12-15T04:36:33;48.03;;;21.40;;
29500;SDS011;16450;50.288;10.966;2022-12-15T04:39:53;52.60;;;21.33;;
29500;SDS011;16450;50.288;10.966;2022-12-15T04:43:13;47.60;;;20.77;;
29500;SDS011;16450;50.288;10.966;2022-12-15T04:46:32;47.77;;;20.27;;
29500;SDS011;16450;50.288;10.966;2022-12-15T04:49:52;49.43;;;20.73;;
29500;SDS011;16450;50.288;10.966;2022-12-15T04:53:12;50.33;;;21.20;;
29500;SDS011;16450;50.288;10.966;2022-12-15T04:56:33;51.40;;;21.87;;
29500;SDS011;16450;50.288;10.966;2022-12-15T04:59:52;50.03;;;20.07;;
29500;SDS011;16450;50.288;10.966;2022-12-15T05:03:11;53.63;;;21.73;;
29500;SDS011;16450;50.288;10.966;2022-12-15T05:06:30;59.57;;;21.80;;
29500;SDS011;16450;50.288;10.966;2022-12-15T05:09:49;50.70;;;20.33;;
29500;SDS011;16450;50.288;10.966;2022-12-15T05:13:09;52.13;;;21.30;;
29500;SDS011;16450;50.288;10.966;2022-12-15T05:16:28;50.97;;;19.80;;
29500;SDS011;16450;50.288;10.966;2022-12-15T05:19:48;48.23;;;20.63;;
29500;SDS011;16450;50.288;10.966;2022-12-15T05:23:07;51.10;;;20.30;;
29500;SDS011;16450;50.288;10.966;2022-12-15T05:26:26;45.33;;;19.53;;
29500;SDS011;16450;50.288;10.966;2022-12-15T05:29:46;46.53;;;18.90;;
29500;SDS011;16450;50.288;10.966;2022-12-15T05:33:05;46.63;;;18.90;;
29500;SDS011;16450;50.288;10.966;2022-12-15T05:36:07;48.80;;;18.97;;
29500;SDS011;16450;50.288;10.966;2022-12-15T05:39:07;46.67;;;19.87;;
29500;SDS011;16450;50.288;10.966;2022-12-15T05:42:08;49.07;;;19.63;;
29500;SDS011;16450;50.288;10.966;2022-12-15T05:45:09;44.87;;;18.50;;
29500;SDS011;16450;50.288;10.966;2022-12-15T05:48:10;43.43;;;18.40;;
29500;SDS011;16450;50.288;10.966;2022-12-15T05:51:11;46.47;;;18.37;;
29500;SDS011;16450;50.288;10.966;2022-12-15T05:54:13;51.13;;;20.67;;
29500;SDS011;16450;50.288;10.966;2022-12-15T05:57:18;47.93;;;19.10;;
29500;SDS011;16450;50.288;10.966;2022-12-15T06:00:19;46.60;;;19.30;;
29500;SDS011;16450;50.288;10.966;2022-12-15T06:03:20;46.20;;;18.40;;
29500;SDS011;16450;50.288;10.966;2022-12-15T06:06:21;42.60;;;19.23;;
29500;SDS011;16450;50.288;10.966;2022-12-15T06:09:21;38.67;;;17.63;;
29500;SDS011;16450;50.288;10.966;2022-12-15T06:12:22;42.10;;;18.77;;
29500;SDS011;16450;50.288;10.966;2022-12-15T06:15:22;41.83;;;18.57;;
29500;SDS011;16450;50.288;10.966;2022-12-15T06:18:23;39.23;;;17.43;;
29500;SDS011;16450;50.288;10.966;2022-12-15T06:21:28;44.37;;;18.33;;
29500;SDS011;16450;50.288;10.966;2022-12-15T06:24:31;45.60;;;19.73;;
29500;SDS011;16450;50.288;10.966;2022-12-15T06:27:33;39.80;;;18.43;;
29500;SDS011;16450;50.288;10.966;2022-12-15T06:30:35;45.67;;;19.40;;
29500;SDS011;16450;50.288;10.966;2022-12-15T06:33:37;43.67;;;18.53;;
29500;SDS011;16450;50.288;10.966;2022-12-15T06:36:38;39.90;;;18.63;;
29500;SDS011;16450;50.288;10.966;2022-12-15T06:39:38;49.03;;;19.70;;
29500;SDS011;16450;50.288;10.966;2022-12-15T06:42:39;40.17;;;18.33;;
29500;SDS011;16450;50.288;10.966;2022-12-15T06:45:39;47.10;;;20.43;;
29500;SDS011;16450;50.288;10.966;2022-12-15T06:48:48;45.93;;;19.70;;
29500;SDS011;16450;50.288;10.966;2022-12-15T06:51:49;44.67;;;18.57;;
29500;SDS011;16450;50.288;10.966;2022-12-15T06:54:49;42.93;;;18.03;;
29500;SDS011;16450;50.288;10.966;2022-12-15T06:57:50;46.07;;;19.90;;
29500;SDS011;16450;50.288;10.966;2022-12-15T07:00:50;47.07;;;19.37;;
29500;SDS011;16450;50.288;10.966;2022-12-15T07:03:51;44.93;;;19.20;;
29500;SDS011;16450;50.288;10.966;2022-12-15T07:06:52;45.30;;;19.30;;
29500;SDS011;16450;50.288;10.966;2022-12-15T07:09:52;43.60;;;18.57;;
29500;SDS011;16450;50.288;10.966;2022-12-15T07:12:54;48.17;;;20.23;;
29500;SDS011;16450;50.288;10.966;2022-12-15T07:16:02;43.67;;;19.50;;
29500;SDS011;16450;50.288;10.966;2022-12-15T07:19:04;49.10;;;19.93;;
29500;SDS011;16450;50.288;10.966;2022-12-15T07:22:04;40.87;;;17.60;;
29500;SDS011;16450;50.288;10.966;2022-12-15T07:25:05;48.53;;;19.87;;
29500;SDS011;16450;50.288;10.966;2022-12-15T07:28:07;47.83;;;19.70;;
29500;SDS011;16450;50.288;10.966;2022-12-15T07:31:09;52.10;;;19.80;;
29500;SDS011;16450;50.288;10.966;2022-12-15T07:34:12;51.30;;;20.03;;
29500;SDS011;16450;50.288;10.966;2022-12-15T07:37:13;52.00;;;18.77;;
29500;SDS011;16450;50.288;10.966;2022-12-15T07:40:16;49.50;;;20.17;;
29500;SDS011;16450;50.288;10.966;2022-12-15T07:43:17;45.73;;;18.63;;
29500;SDS011;16450;50.288;10.966;2022-12-15T07:46:18;56.37;;;21.53;;
29500;SDS011;16450;50.288;10.966;2022-12-15T07:49:18;50.37;;;19.53;;
29500;SDS011;16450;50.288;10.966;2022-12-15T07:52:19;51.33;;;19.80;;
29500;SDS011;16450;50.288;10.966;2022-12-15T07:55:20;58.17;;;21.73;;
29500;SDS011;16450;50.288;10.966;2022-12-15T07:58:21;48.90;;;19.53;;
29500;SDS011;16450;50.288;10.966;2022-12-15T08:01:21;58.10;;;21.63;;
29500;SDS011;16450;50.288;10.966;2022-12-15T08:04:23;50.37;;;20.37;;
29500;SDS011;16450;50.288;10.966;2022-12-15T08:07:24;51.40;;;20.53;;
29500;SDS011;16450;50.288;10.966;2022-12-15T08:10:24;50.57;;;20.30;;
29500;SDS011;16450;50.288;10.966;2022-12-15T08:13:25;51.80;;;20.90;;
29500;SDS011;16450;50.288;10.966;2022-12-15T08:16:25;47.27;;;21.37;;
29500;SDS011;16450;50.288;10.966;2022-12-15T08:19:26;50.73;;;21.60;;
29500;SDS011;16450;50.288;10.966;2022-12-15T08:22:27;48.40;;;20.00;;
29500;SDS011;16450;50.288;10.966;2022-12-15T08:25:27;48.70;;;19.50;;
29500;SDS011;16450;50.288;10.966;2022-12-15T08:28:28;50.03;;;19.93;;
29500;SDS011;16450;50.288;10.966;2022-12-15T08:31:29;49.73;;;21.53;;
29500;SDS011;16450;50.288;10.966;2022-12-15T08:34:32;45.27;;;19.23;;
29500;SDS011;16450;50.288;10.966;2022-12-15T08:37:33;50.53;;;20.57;;
29500;SDS011;16450;50.288;10.966;2022-12-15T08:40:33;53.40;;;22.03;;
29500;SDS011;16450;50.288;10.966;2022-12-15T08:43:34;47.83;;;20.33;;
29500;SDS011;16450;50.288;10.966;2022-12-15T08:46:36;44.83;;;20.07;;
29500;SDS011;16450;50.288;10.966;2022-12-15T08:49:36;46.87;;;19.77;;
29500;SDS011;16450;50.288;10.966;2022-12-15T08:52:37;45.03;;;19.80;;
29500;SDS011;16450;50.288;10.966;2022-12-15T08:55:40;48.27;;;20.03;;
29500;SDS011;16450;50.288;10.966;2022-12-15T08:58:41;47.90;;;20.03;;
29500;SDS011;16450;50.288;10.966;2022-12-15T09:01:43;52.40;;;20.80;;
29500;SDS011;16450;50.288;10.966;2022-12-15T09:04:43;54.13;;;22.43;;
29500;SDS011;16450;50.288;10.966;2022-12-15T09:07:44;46.33;;;19.73;;
29500;SDS011;16450;50.288;10.966;2022-12-15T09:10:45;49.40;;;20.63;;
29500;SDS011;16450;50.288;10.966;2022-12-15T09:13:45;47.83;;;21.40;;
29500;SDS011;16450;50.288;10.966;2022-12-15T09:16:46;44.83;;;18.30;;
29500;SDS011;16450;50.288;10.966;2022-12-15T09:19:47;42.07;;;18.50;;
29500;SDS011;16450;50.288;10.966;2022-12-15T09:22:47;41.63;;;18.53;;
29500;SDS011;16450;50.288;10.966;2022-12-15T09:25:48;43.47;;;18.80;;
29500;SDS011;16450;50.288;10.966;2022-12-15T09:28:48;45.37;;;19.40;;
29500;SDS011;16450;50.288;10.966;2022-12-15T09:31:50;43.03;;;18.87;;
29500;SDS011;16450;50.288;10.966;2022-12-15T09:34:51;45.73;;;18.97;;
29500;SDS011;16450;50.288;10.966;2022-12-15T09:37:52;47.40;;;19.23;;
29500;SDS011;16450;50.288;10.966;2022-12-15T09:40:52;46.47;;;20.37;;
29500;SDS011;16450;50.288;10.966;2022-12-15T09:43:57;44.63;;;19.87;;
29500;SDS011;16450;50.288;10.966;2022-12-15T09:47:13;51.63;;;20.87;;
29500;SDS011;16450;50.288;10.966;2022-12-15T09:50:28;52.43;;;21.13;;
29500;SDS011;16450;50.288;10.966;2022-12-15T09:53:34;49.40;;;20.10;;
29500;SDS011;16450;50.288;10.966;2022-12-15T09:56:38;47.57;;;20.00;;
29500;SDS011;16450;50.288;10.966;2022-12-15T10:06:24;50.83;;;21.80;;
29500;SDS011;16450;50.288;10.966;2022-12-15T10:09:31;50.93;;;22.57;;
29500;SDS011;16450;50.288;10.966;2022-12-15T10:12:32;45.63;;;20.70;;
29500;SDS011;16450;50.288;10.966;2022-12-15T10:19:06;45.87;;;20.70;;
29500;SDS011;16450;50.288;10.966;2022-12-15T10:22:14;50.53;;;21.30;;
29500;SDS011;16450;50.288;10.966;2022-12-15T10:25:26;44.10;;;20.10;;
29500;SDS011;16450;50.288;10.966;2022-12-15T10:31:56;46.63;;;20.43;;
29500;SDS011;16450;50.288;10.966;2022-12-15T10:35:15;45.10;;;20.47;;
29500;SDS011;16450;50.288;10.966;2022-12-15T10:38:26;46.27;;;20.33;;
29500;SDS011;16450;50.288;10.966;2022-12-15T10:41:36;49.03;;;21.03;;
29500;SDS011;16450;50.288;10.966;2022-12-15T10:44:38;42.33;;;19.97;;
29500;SDS011;16450;50.288;10.966;2022-12-15T10:47:40;45.47;;;20.03;;
29500;SDS011;16450;50.288;10.966;2022-12-15T10:54:14;45.73;;;20.07;;
29500;SDS011;16450;50.288;10.966;2022-12-15T10:57:21;50.80;;;22.47;;
29500;SDS011;16450;50.288;10.966;2022-12-15T11:00:27;51.23;;;21.17;;
29500;SDS011;16450;50.288;10.966;2022-12-15T11:03:32;45.97;;;20.83;;
29500;SDS011;16450;50.288;10.966;2022-12-15T11:06:36;52.73;;;22.83;;
29500;SDS011;16450;50.288;10.966;2022-12-15T11:09:41;51.57;;;22.20;;
29500;SDS011;16450;50.288;10.966;2022-12-15T11:12:42;48.67;;;22.93;;
29500;SDS011;16450;50.288;10.966;2022-12-15T11:15:52;50.57;;;21.03;;
29500;SDS011;16450;50.288;10.966;2022-12-15T11:18:57;56.57;;;23.47;;
29500;SDS011;16450;50.288;10.966;2022-12-15T11:28:41;55.77;;;22.13;;
29500;SDS011;16450;50.288;10.966;2022-12-15T11:31:47;52.20;;;22.10;;
29500;SDS011;16450;50.288;10.966;2022-12-15T11:34:49;52.40;;;22.87;;
29500;SDS011;16450;50.288;10.966;2022-12-15T11:38:02;53.90;;;22.67;;
29500;SDS011;16450;50.288;10.966;2022-12-15T11:44:44;55.67;;;23.67;;
29500;SDS011;16450;50.288;10.966;2022-12-15T11:51:04;54.07;;;23.17;;
29500;SDS011;16450;50.288;10.966;2022-12-15T12:01:02;50.67;;;23.20;;
29500;SDS011;16450;50.288;10.966;2022-12-15T12:04:24;54.60;;;22.77;;
29500;SDS011;16450;50.288;10.966;2022-12-15T12:07:37;57.90;;;23.57;;
29500;SDS011;16450;50.288;10.966;2022-12-15T12:14:05;56.33;;;24.70;;
29500;SDS011;16450;50.288;10.966;2022-12-15T12:17:19;51.50;;;23.47;;
29500;SDS011;16450;50.288;10.966;2022-12-15T12:20:40;55.37;;;24.37;;
29500;SDS011;16450;50.288;10.966;2022-12-15T12:23:48;56.47;;;25.60;;
29500;SDS011;16450;50.288;10.966;2022-12-15T12:27:03;56.70;;;23.17;;
29500;SDS011;16450;50.288;10.966;2022-12-15T12:30:14;57.03;;;24.83;;
29500;SDS011;16450;50.288;10.966;2022-12-15T12:36:31;60.53;;;25.97;;
29500;SDS011;16450;50.288;10.966;2022-12-15T12:39:32;57.03;;;25.17;;
29500;SDS011;16450;50.288;10.966;2022-12-15T12:42:36;54.83;;;25.00;;
29500;SDS011;16450;50.288;10.966;2022-12-15T12:52:18;60.50;;;25.10;;
29500;SDS011;16450;50.288;10.966;2022-12-15T12:55:27;53.30;;;24.03;;
29500;SDS011;16450;50.288;10.966;2022-12-15T12:58:32;62.77;;;25.73;;
29500;SDS011;16450;50.288;10.966;2022-12-15T13:01:35;64.80;;;28.67;;
29500;SDS011;16450;50.288;10.966;2022-12-15T13:04:40;61.20;;;25.87;;
29500;SDS011;16450;50.288;10.966;2022-12-15T13:07:41;61.67;;;27.10;;
29500;SDS011;16450;50.288;10.966;2022-12-15T13:10:58;61.70;;;26.60;;
29500;SDS011;16450;50.288;10.966;2022-12-15T13:17:39;60.20;;;26.20;;
29500;SDS011;16450;50.288;10.966;2022-12-15T13:20:44;59.03;;;25.30;;
29500;SDS011;16450;50.288;10.966;2022-12-15T13:23:46;63.27;;;26.10;;
29500;SDS011;16450;50.288;10.966;2022-12-15T13:26:47;60.83;;;26.47;;
29500;SDS011;16450;50.288;10.966;2022-12-15T13:33:12;59.37;;;23.80;;
29500;SDS011;16450;50.288;10.966;2022-12-15T13:39:51;60.83;;;25.03;;
29500;SDS011;16450;50.288;10.966;2022-12-15T13:46:11;62.27;;;25.17;;
29500;SDS011;16450;50.288;10.966;2022-12-15T13:49:23;67.00;;;27.07;;
29500;SDS011;16450;50.288;10.966;2022-12-15T13:52:34;66.87;;;26.60;;
29500;SDS011;16450;50.288;10.966;2022-12-15T13:55:45;59.43;;;24.70;;
29500;SDS011;16450;50.288;10.966;2022-12-15T13:58:54;67.60;;;26.97;;
29500;SDS011;16450;50.288;10.966;2022-12-15T14:01:59;64.77;;;28.67;;
29500;SDS011;16450;50.288;10.966;2022-12-15T14:05:04;69.37;;;29.33;;
29500;SDS011;16450;50.288;10.966;2022-12-15T14:08:06;72.33;;;32.83;;
29500;SDS011;16450;50.288;10.966;2022-12-15T14:11:14;77.13;;;33.70;;
29500;SDS011;16450;50.288;10.966;2022-12-15T14:14:27;68.73;;;29.70;;
29500;SDS011;16450;50.288;10.966;2022-12-15T14:17:31;67.50;;;27.10;;
29500;SDS011;16450;50.288;10.966;2022-12-15T14:20:38;62.47;;;26.00;;
29500;SDS011;16450;50.288;10.966;2022-12-15T14:23:41;63.67;;;27.03;;
29500;SDS011;16450;50.288;10.966;2022-12-15T14:26:42;59.97;;;25.23;;
29500;SDS011;16450;50.288;10.966;2022-12-15T14:29:43;75.23;;;30.40;;
29500;SDS011;16450;50.288;10.966;2022-12-15T14:32:44;66.40;;;28.63;;
29500;SDS011;16450;50.288;10.966;2022-12-15T14:35:48;64.27;;;28.17;;
29500;SDS011;16450;50.288;10.966;2022-12-15T14:38:56;123.60;;;37.10;;
29500;SDS011;16450;50.288;10.966;2022-12-15T14:42:00;70.57;;;27.80;;
29500;SDS011;16450;50.288;10.966;2022-12-15T14:45:03;72.37;;;25.43;;
29500;SDS011;16450;50.288;10.966;2022-12-15T14:48:08;75.03;;;26.50;;
29500;SDS011;16450;50.288;10.966;2022-12-15T14:51:10;66.00;;;25.00;;
29500;SDS011;16450;50.288;10.966;2022-12-15T14:54:35;61.70;;;23.93;;
29500;SDS011;16450;50.288;10.966;2022-12-15T14:57:43;63.80;;;24.00;;
29500;SDS011;16450;50.288;10.966;2022-12-15T15:00:48;71.60;;;24.63;;
29500;SDS011;16450;50.288;10.966;2022-12-15T15:04:04;78.90;;;25.90;;
29500;SDS011;16450;50.288;10.966;2022-12-15T15:07:20;62.10;;;25.13;;
29500;SDS011;16450;50.288;10.966;2022-12-15T15:10:22;91.73;;;25.53;;
29500;SDS011;16450;50.288;10.966;2022-12-15T15:13:38;73.47;;;25.37;;
29500;SDS011;16450;50.288;10.966;2022-12-15T15:16:40;96.23;;;27.43;;
29500;SDS011;16450;50.288;10.966;2022-12-15T15:19:45;95.83;;;26.77;;
29500;SDS011;16450;50.288;10.966;2022-12-15T15:26:16;106.67;;;24.60;;
29500;SDS011;16450;50.288;10.966;2022-12-15T15:32:47;95.77;;;25.93;;
29500;SDS011;16450;50.288;10.966;2022-12-15T15:35:51;76.93;;;22.43;;
29500;SDS011;16450;50.288;10.966;2022-12-15T15:38:56;106.50;;;25.23;;
29500;SDS011;16450;50.288;10.966;2022-12-15T15:42:02;134.40;;;29.80;;
29500;SDS011;16450;50.288;10.966;2022-12-15T15:45:09;84.93;;;24.17;;
29500;SDS011;16450;50.288;10.966;2022-12-15T15:48:14;152.33;;;27.00;;
29500;SDS011;16450;50.288;10.966;2022-12-15T15:51:24;81.47;;;23.27;;
29500;SDS011;16450;50.288;10.966;2022-12-15T15:54:27;63.07;;;23.53;;
29500;SDS011;16450;50.288;10.966;2022-12-15T15:57:34;60.37;;;23.37;;
29500;SDS011;16450;50.288;10.966;2022-12-15T16:00:34;95.43;;;28.77;;
29500;SDS011;16450;50.288;10.966;2022-12-15T16:03:35;98.53;;;33.43;;
29500;SDS011;16450;50.288;10.966;2022-12-15T16:06:35;74.40;;;28.97;;
29500;SDS011;16450;50.288;10.966;2022-12-15T16:09:36;79.40;;;26.23;;
29500;SDS011;16450;50.288;10.966;2022-12-15T16:12:56;65.80;;;26.37;;
29500;SDS011;16450;50.288;10.966;2022-12-15T16:15:59;73.87;;;27.23;;
29500;SDS011;16450;50.288;10.966;2022-12-15T16:19:01;79.93;;;29.70;;
29500;SDS011;16450;50.288;10.966;2022-12-15T16:22:02;87.73;;;31.77;;
29500;SDS011;16450;50.288;10.966;2022-12-15T16:25:03;81.00;;;32.80;;
29500;SDS011;16450;50.288;10.966;2022-12-15T16:28:24;87.63;;;31.90;;
29500;SDS011;16450;50.288;10.966;2022-12-15T16:31:33;65.23;;;27.37;;
29500;SDS011;16450;50.288;10.966;2022-12-15T16:34:38;64.43;;;26.87;;
29500;SDS011;16450;50.288;10.966;2022-12-15T16:37:41;92.73;;;27.77;;
29500;SDS011;16450;50.288;10.966;2022-12-15T16:40:45;65.53;;;26.90;;
29500;SDS011;16450;50.288;10.966;2022-12-15T16:43:46;57.70;;;27.10;;
29500;SDS011;16450;50.288;10.966;2022-12-15T16:46:46;57.40;;;23.47;;
29500;SDS011;16450;50.288;10.966;2022-12-15T16:49:47;71.60;;;26.70;;
29500;SDS011;16450;50.288;10.966;2022-12-15T16:52:48;63.70;;;22.77;;
29500;SDS011;16450;50.288;10.966;2022-12-15T16:55:55;65.23;;;24.17;;
29500;SDS011;16450;50.288;10.966;2022-12-15T16:58:57;62.13;;;23.83;;
29500;SDS011;16450;50.288;10.966;2022-12-15T17:01:57;58.50;;;23.03;;
29500;SDS011;16450;50.288;10.966;2022-12-15T17:04:58;48.47;;;22.50;;
29500;SDS011;16450;50.288;10.966;2022-12-15T17:07:59;50.00;;;23.23;;
29500;SDS011;16450;50.288;10.966;2022-12-15T17:11:05;45.97;;;22.13;;
29500;SDS011;16450;50.288;10.966;2022-12-15T17:14:10;48.30;;;21.90;;
29500;SDS011;16450;50.288;10.966;2022-12-15T17:17:15;42.40;;;20.50;;
29500;SDS011;16450;50.288;10.966;2022-12-15T17:20:22;47.43;;;20.33;;
29500;SDS011;16450;50.288;10.966;2022-12-15T17:23:26;41.83;;;18.80;;
29500;SDS011;16450;50.288;10.966;2022-12-15T17:26:27;45.90;;;21.27;;
29500;SDS011;16450;50.288;10.966;2022-12-15T17:29:30;47.83;;;20.57;;
29500;SDS011;16450;50.288;10.966;2022-12-15T17:32:31;46.20;;;20.73;;
29500;SDS011;16450;50.288;10.966;2022-12-15T17:35:32;46.87;;;20.47;;
29500;SDS011;16450;50.288;10.966;2022-12-15T17:38:32;43.53;;;20.50;;
29500;SDS011;16450;50.288;10.966;2022-12-15T17:41:33;44.33;;;19.70;;
29500;SDS011;16450;50.288;10.966;2022-12-15T17:44:34;42.07;;;18.87;;
29500;SDS011;16450;50.288;10.966;2022-12-15T17:47:35;42.83;;;20.07;;
29500;SDS011;16450;50.288;10.966;2022-12-15T17:50:35;44.27;;;19.47;;
29500;SDS011;16450;50.288;10.966;2022-12-15T17:53:37;46.50;;;20.93;;
29500;SDS011;16450;50.288;10.966;2022-12-15T17:56:38;49.63;;;21.87;;
29500;SDS011;16450;50.288;10.966;2022-12-15T17:59:40;49.53;;;21.87;;
29500;SDS011;16450;50.288;10.966;2022-12-15T18:02:41;51.23;;;21.70;;
29500;SDS011;16450;50.288;10.966;2022-12-15T18:05:42;44.70;;;21.53;;
29500;SDS011;16450;50.288;10.966;2022-12-15T18:08:43;47.17;;;21.70;;
29500;SDS011;16450;50.288;10.966;2022-12-15T18:11:44;47.83;;;21.07;;
29500;SDS011;16450;50.288;10.966;2022-12-15T18:14:45;46.50;;;21.37;;
29500;SDS011;16450;50.288;10.966;2022-12-15T18:17:46;44.53;;;21.30;;
29500;SDS011;16450;50.288;10.966;2022-12-15T18:20:48;48.53;;;21.57;;
29500;SDS011;16450;50.288;10.966;2022-12-15T18:23:49;46.40;;;20.90;;
29500;SDS011;16450;50.288;10.966;2022-12-15T18:26:51;45.20;;;21.60;;
29500;SDS011;16450;50.288;10.966;2022-12-15T18:29:51;50.23;;;23.20;;
29500;SDS011;16450;50.288;10.966;2022-12-15T18:32:53;46.93;;;21.87;;
29500;SDS011;16450;50.288;10.966;2022-12-15T18:35:56;48.00;;;22.73;;
29500;SDS011;16450;50.288;10.966;2022-12-15T18:38:57;47.27;;;21.50;;
29500;SDS011;16450;50.288;10.966;2022-12-15T18:41:58;43.90;;;20.73;;
29500;SDS011;16450;50.288;10.966;2022-12-15T18:44:58;42.10;;;21.53;;
29500;SDS011;16450;50.288;10.966;2022-12-15T18:47:59;46.27;;;20.50;;
29500;SDS011;16450;50.288;10.966;2022-12-15T18:51:00;42.60;;;20.47;;
29500;SDS011;16450;50.288;10.966;2022-12-15T18:54:18;41.30;;;19.53;;
29500;SDS011;16450;50.288;10.966;2022-12-15T18:57:26;44.90;;;20.30;;
29500;SDS011;16450;50.288;10.966;2022-12-15T19:00:31;42.90;;;19.43;;
29500;SDS011;16450;50.288;10.966;2022-12-15T19:03:33;41.90;;;19.50;;
29500;SDS011;16450;50.288;10.966;2022-12-15T19:06:34;44.63;;;21.57;;
29500;SDS011;16450;50.288;10.966;2022-12-15T19:09:37;41.73;;;19.27;;
29500;SDS011;16450;50.288;10.966;2022-12-15T19:12:37;41.03;;;20.37;;
29500;SDS011;16450;50.288;10.966;2022-12-15T19:15:38;35.90;;;18.07;;
29500;SDS011;16450;50.288;10.966;2022-12-15T19:18:39;37.90;;;19.43;;
29500;SDS011;16450;50.288;10.966;2022-12-15T19:21:58;40.83;;;19.30;;
29500;SDS011;16450;50.288;10.966;2022-12-15T19:24:59;39.20;;;19.50;;